Terminal Aerodrome Forecast
Issued by NWS

Home | Current Version | Previous Version | Text Only | Print | Product List | Glossary On
Versions: 1 2 3 4 5 6 7 8 9 10 11 12 13 14 15 16 17 18 19 20 21 22
000
FTUS43 KDLH 201700
TAFHIB
TAF
KHIB 201737Z 2018/2118 34012KT P6SM OVC028
      TEMPO 2022/2024 SCT025
     FM210000 03005KT P6SM SCT030
     FM210400 07004KT 6SM BR BKN015
     FM210900 VRB02KT P6SM OVC015
     FM211500 14008KT P6SM OVC025=

USA.gov is the U.S. government's official web portal to all federal, state and local government web resources and services.